createdAt,value
2023-01-11T00:00:33.309Z,5.85
2023-01-11T00:01:33.288Z,5.85
2023-01-11T00:02:33.734Z,5.86
2023-01-11T00:03:33.224Z,5.88
2023-01-11T00:04:33.333Z,5.85
2023-01-11T00:05:33.234Z,5.88
2023-01-11T00:06:33.525Z,5.86
2023-01-11T00:07:33.232Z,5.86
2023-01-11T00:08:33.258Z,5.88
2023-01-11T00:09:33.253Z,5.89
2023-01-11T00:10:33.173Z,5.91
2023-01-11T00:11:33.271Z,5.88
2023-01-11T00:12:33.185Z,5.91
2023-01-11T00:13:33.106Z,5.91
2023-01-11T00:14:33.189Z,5.91
2023-01-11T00:15:33.127Z,5.91
2023-01-11T00:16:33.134Z,5.93
2023-01-11T00:17:33.113Z,5.95
2023-01-11T00:18:33.206Z,5.96
2023-01-11T00:19:33.129Z,5.98
2023-01-11T00:20:33.132Z,6.00
2023-01-11T00:21:33.029Z,5.98
2023-01-11T00:22:33.137Z,6.00
2023-01-11T00:23:33.026Z,6.01
2023-01-11T00:24:32.948Z,6.01
2023-01-11T00:25:33.152Z,6.03
2023-01-11T00:26:33.064Z,6.03
2023-01-11T00:27:32.868Z,6.06
2023-01-11T00:28:32.902Z,6.06
2023-01-11T00:29:32.915Z,6.06
2023-01-11T00:30:32.985Z,6.04
2023-01-11T00:31:32.946Z,6.06
2023-01-11T00:32:32.913Z,6.03
2023-01-11T00:33:32.829Z,6.06
2023-01-11T00:34:32.829Z,6.06
2023-01-11T00:35:32.914Z,6.07
2023-01-11T00:36:32.839Z,6.07
2023-01-11T00:37:32.773Z,6.07
2023-01-11T00:38:32.873Z,6.07
2023-01-11T00:39:32.762Z,6.10
2023-01-11T00:40:32.746Z,6.10
2023-01-11T00:41:32.773Z,6.11
2023-01-11T00:42:32.814Z,6.11
2023-01-11T00:43:32.775Z,6.10
2023-01-11T00:44:32.702Z,6.11
2023-01-11T00:45:32.797Z,6.11
2023-01-11T00:46:32.665Z,6.11
2023-01-11T00:47:32.596Z,6.10
2023-01-11T00:48:32.732Z,6.10
2023-01-11T00:49:32.842Z,6.10
2023-01-11T00:50:32.811Z,6.11
2023-01-11T00:51:32.547Z,6.11
2023-01-11T00:52:32.629Z,6.11
2023-01-11T00:53:32.636Z,6.11
2023-01-11T00:54:32.573Z,6.13
2023-01-11T00:55:32.679Z,6.13
2023-01-11T00:56:32.568Z,6.16
2023-01-11T00:57:32.482Z,6.14
2023-01-11T00:58:32.813Z,6.14
2023-01-11T00:59:32.508Z,6.14
2023-01-11T01:00:32.509Z,6.18
2023-01-11T01:01:32.510Z,6.19
2023-01-11T01:02:32.635Z,6.19
2023-01-11T01:03:32.504Z,6.19
2023-01-11T01:04:32.738Z,6.19
2023-01-11T01:05:32.436Z,6.21
2023-01-11T01:06:32.537Z,6.21
2023-01-11T01:07:32.338Z,6.21
2023-01-11T01:08:32.440Z,6.21
2023-01-11T01:09:32.749Z,6.21
2023-01-11T01:10:32.455Z,6.21
2023-01-11T01:11:32.366Z,6.21
2023-01-11T01:12:32.288Z,6.21
2023-01-11T01:13:32.293Z,6.22
2023-01-11T01:14:32.277Z,6.22
2023-01-11T01:15:32.364Z,6.21
2023-01-11T01:16:32.294Z,6.21
2023-01-11T01:17:32.212Z,6.21
2023-01-11T01:18:32.214Z,6.21
2023-01-11T01:19:32.241Z,6.21
2023-01-11T01:20:32.123Z,6.22
2023-01-11T01:21:32.324Z,6.21
2023-01-11T01:22:32.239Z,6.25
2023-01-11T01:23:32.147Z,6.25
2023-01-11T01:24:32.148Z,6.25
2023-01-11T01:25:32.200Z,6.26
2023-01-11T01:26:32.267Z,6.28
2023-01-11T01:27:32.100Z,6.26
2023-01-11T01:28:32.108Z,6.26
2023-01-11T01:29:32.079Z,6.28
2023-01-11T01:30:32.111Z,6.26
2023-01-11T01:31:32.133Z,6.28
2023-01-11T01:32:32.089Z,6.29
2023-01-11T01:33:32.004Z,6.28
2023-01-11T01:34:32.112Z,6.28
2023-01-11T01:35:32.021Z,6.28
2023-01-11T01:36:32.016Z,6.29
2023-01-11T01:37:31.939Z,6.28
2023-01-11T01:38:32.033Z,6.28
2023-01-11T01:39:33.230Z,6.28
2023-01-11T01:40:32.356Z,6.29
2023-01-11T01:41:31.892Z,6.29
2023-01-11T01:42:31.869Z,6.28
2023-01-11T01:43:31.980Z,6.29
2023-01-11T01:44:33.214Z,6.30
2023-01-11T01:45:32.611Z,6.29
2023-01-11T01:46:32.060Z,6.30
2023-01-11T01:47:32.224Z,6.30
2023-01-11T01:48:32.147Z,6.30
2023-01-11T01:49:33.249Z,6.30
2023-01-11T01:50:31.821Z,6.30
2023-01-11T01:51:31.955Z,6.32
2023-01-11T01:52:32.056Z,6.33
2023-01-11T01:53:31.831Z,6.33
2023-01-11T01:54:31.842Z,6.35
2023-01-11T01:55:31.755Z,6.36
2023-01-11T01:56:31.857Z,6.40
2023-01-11T01:57:31.783Z,6.40
2023-01-11T01:58:31.865Z,6.41
2023-01-11T01:59:31.693Z,6.44
2023-01-11T02:00:31.809Z,6.44
2023-01-11T02:01:31.646Z,6.44
2023-01-11T02:02:31.850Z,6.46
2023-01-11T02:03:31.706Z,6.44
2023-01-11T02:04:31.630Z,6.47
2023-01-11T02:05:31.709Z,6.47
2023-01-11T02:06:31.656Z,6.48
2023-01-11T02:07:31.646Z,6.48
2023-01-11T02:08:31.758Z,6.50
2023-01-11T02:09:31.867Z,6.50
2023-01-11T02:10:31.656Z,6.51
2023-01-11T02:11:31.614Z,6.53
2023-01-11T02:12:31.665Z,6.51
2023-01-11T02:13:31.990Z,6.56
2023-01-11T02:14:31.577Z,6.56
2023-01-11T02:15:31.602Z,6.56
2023-01-11T02:16:31.616Z,6.58
2023-01-11T02:17:31.734Z,6.59
2023-01-11T02:18:31.505Z,6.59
2023-01-11T02:19:31.512Z,6.61
2023-01-11T02:20:31.415Z,6.58
2023-01-11T02:21:31.561Z,6.58
2023-01-11T02:22:31.445Z,6.59
2023-01-11T02:23:31.651Z,6.59
2023-01-11T02:24:31.465Z,6.59
2023-01-11T02:25:31.439Z,6.62
2023-01-11T02:26:31.476Z,6.63
2023-01-11T02:27:31.493Z,6.63
2023-01-11T02:28:38.245Z,6.62
2023-01-11T02:29:31.306Z,6.65
2023-01-11T02:30:31.412Z,6.63
2023-01-11T02:31:31.443Z,6.65
2023-01-11T02:32:31.403Z,6.65
2023-01-11T02:33:31.303Z,6.65
2023-01-11T02:34:31.444Z,6.66
2023-01-11T02:35:31.273Z,6.68
2023-01-11T02:36:31.163Z,6.68
2023-01-11T02:37:31.232Z,6.71
2023-01-11T02:38:31.147Z,6.69
2023-01-11T02:39:31.234Z,6.71
2023-01-11T02:40:31.153Z,6.72
2023-01-11T02:41:31.272Z,6.71
2023-01-11T02:42:31.173Z,6.72
2023-01-11T02:43:31.166Z,6.72
2023-01-11T02:44:31.214Z,6.71
2023-01-11T02:45:31.236Z,6.71
2023-01-11T02:46:31.297Z,6.72
2023-01-11T02:47:31.124Z,6.73
2023-01-11T02:48:31.141Z,6.72
2023-01-11T02:49:30.925Z,6.73
2023-01-11T02:50:31.021Z,6.73
2023-01-11T02:51:31.123Z,6.77
2023-01-11T02:52:31.045Z,6.79
2023-01-11T02:53:30.867Z,6.80
2023-01-11T02:54:30.957Z,6.81
2023-01-11T02:55:31.063Z,6.81
2023-01-11T02:56:30.961Z,6.84
2023-01-11T02:57:30.966Z,6.84
2023-01-11T02:58:30.956Z,6.86
2023-01-11T02:59:30.966Z,6.87
2023-01-11T03:00:30.917Z,6.90
2023-01-11T03:01:30.983Z,6.91
2023-01-11T03:02:30.950Z,6.94
2023-01-11T03:03:31.648Z,6.91
2023-01-11T03:04:30.926Z,6.95
2023-01-11T03:05:30.950Z,7.01
2023-01-11T03:06:31.288Z,7.02
2023-01-11T03:07:30.922Z,7.04
2023-01-11T03:08:30.827Z,7.04
2023-01-11T03:09:30.756Z,7.04
2023-01-11T03:10:30.868Z,7.07
2023-01-11T03:11:30.960Z,7.07
2023-01-11T03:12:30.771Z,7.09
2023-01-11T03:13:30.764Z,7.13
2023-01-11T03:14:30.771Z,7.13
2023-01-11T03:15:30.690Z,7.12
2023-01-11T03:16:30.923Z,7.12
2023-01-11T03:17:30.919Z,7.12
2023-01-11T03:18:30.530Z,7.12
2023-01-11T03:19:30.542Z,7.12
2023-01-11T03:20:30.526Z,7.12
2023-01-11T03:21:30.647Z,7.08
2023-01-11T03:22:30.642Z,7.08
2023-01-11T03:23:30.660Z,7.09
2023-01-11T03:24:30.547Z,7.09
2023-01-11T03:25:30.953Z,7.09
2023-01-11T03:26:30.758Z,7.08
2023-01-11T03:27:30.572Z,7.08
2023-01-11T03:28:30.504Z,7.09
2023-01-11T03:29:30.569Z,7.08
2023-01-11T03:30:30.482Z,7.09
2023-01-11T03:31:30.786Z,7.08
2023-01-11T03:32:30.433Z,7.09
2023-01-11T03:33:30.498Z,7.09
2023-01-11T03:34:30.420Z,7.12
2023-01-11T03:35:31.552Z,7.15
2023-01-11T03:36:30.417Z,7.13
2023-01-11T03:37:30.443Z,7.13
2023-01-11T03:38:30.467Z,7.15
2023-01-11T03:39:30.364Z,7.15
2023-01-11T03:40:30.379Z,7.15
2023-01-11T03:41:30.465Z,7.15
2023-01-11T03:42:30.752Z,7.15
2023-01-11T03:43:30.485Z,7.16
2023-01-11T03:44:34.747Z,7.19
2023-01-11T03:45:31.408Z,7.20
2023-01-11T03:46:30.943Z,7.22
2023-01-11T03:47:30.627Z,7.20
2023-01-11T03:48:30.307Z,7.20
2023-01-11T03:49:30.421Z,7.20
2023-01-11T03:50:30.542Z,7.22
2023-01-11T03:51:30.250Z,7.22
2023-01-11T03:52:30.153Z,7.23
2023-01-11T03:53:30.157Z,7.24
2023-01-11T03:54:30.141Z,7.26
2023-01-11T03:55:30.055Z,7.26
2023-01-11T03:56:30.044Z,7.27
2023-01-11T03:57:30.158Z,7.27
2023-01-11T03:58:30.076Z,7.27
2023-01-11T03:59:30.481Z,7.27
2023-01-11T04:00:30.107Z,7.31
2023-01-11T04:01:30.093Z,7.31
2023-01-11T04:02:30.033Z,7.34
2023-01-11T04:03:30.017Z,7.32
2023-01-11T04:04:30.462Z,7.35
2023-01-11T04:05:30.046Z,7.35
2023-01-11T04:06:29.973Z,7.35
2023-01-11T04:07:30.141Z,7.35
2023-01-11T04:08:29.925Z,7.37
2023-01-11T04:09:30.043Z,7.38
2023-01-11T04:10:30.131Z,7.38
2023-01-11T04:11:29.889Z,7.40
2023-01-11T04:12:29.964Z,7.40
2023-01-11T04:13:29.968Z,7.42
2023-01-11T04:14:29.879Z,7.41
2023-01-11T04:15:29.902Z,7.42
2023-01-11T04:16:29.961Z,7.42
2023-01-11T04:17:29.810Z,7.42
2023-01-11T04:18:29.713Z,7.42
2023-01-11T04:19:29.805Z,7.44
2023-01-11T04:20:29.842Z,7.42
2023-01-11T04:21:29.736Z,7.45
2023-01-11T04:22:29.645Z,7.45
2023-01-11T04:23:29.662Z,7.45
2023-01-11T04:24:29.628Z,7.47
2023-01-11T04:25:29.771Z,7.47
2023-01-11T04:26:29.767Z,7.49
2023-01-11T04:27:29.758Z,7.47
2023-01-11T04:28:29.767Z,7.47
2023-01-11T04:29:29.675Z,7.47
2023-01-11T04:30:29.602Z,7.49
2023-01-11T04:31:29.541Z,7.52
2023-01-11T04:32:29.598Z,7.52
2023-01-11T04:33:30.515Z,7.50
2023-01-11T04:34:29.602Z,7.53
2023-01-11T04:35:29.631Z,7.53
2023-01-11T04:36:29.655Z,7.53
2023-01-11T04:37:30.645Z,7.53
2023-01-11T04:38:29.736Z,7.52
2023-01-11T04:39:29.546Z,7.53
2023-01-11T04:40:29.548Z,7.55
2023-01-11T04:41:29.558Z,7.56
2023-01-11T04:42:29.572Z,7.56
2023-01-11T04:43:29.567Z,7.58
2023-01-11T04:44:29.587Z,7.58
2023-01-11T04:45:29.563Z,7.58
2023-01-11T04:46:29.491Z,7.59
2023-01-11T04:47:29.484Z,7.59
2023-01-11T04:48:29.492Z,7.59
2023-01-11T04:49:29.441Z,7.60
2023-01-11T04:50:29.477Z,7.60
2023-01-11T04:51:29.448Z,7.60
2023-01-11T04:52:29.431Z,7.62
2023-01-11T04:53:29.451Z,7.60
2023-01-11T04:54:29.474Z,7.62
2023-01-11T04:55:29.260Z,7.62
2023-01-11T04:56:29.483Z,7.63
2023-01-11T04:57:29.359Z,7.66
2023-01-11T04:58:29.382Z,7.66
2023-01-11T04:59:29.279Z,7.69
2023-01-11T05:00:29.294Z,7.67
2023-01-11T05:01:29.410Z,7.67
2023-01-11T05:02:29.304Z,7.69
2023-01-11T05:03:29.194Z,7.69
2023-01-11T05:04:29.307Z,7.69
2023-01-11T05:05:29.210Z,7.71
2023-01-11T05:06:29.303Z,7.71
2023-01-11T05:07:29.229Z,7.71
2023-01-11T05:08:29.244Z,7.72
2023-01-11T05:09:29.292Z,7.72
2023-01-11T05:10:29.141Z,7.74
2023-01-11T05:11:29.158Z,7.75
2023-01-11T05:12:29.062Z,7.75
2023-01-11T05:13:29.068Z,7.75
2023-01-11T05:14:29.091Z,7.75
2023-01-11T05:15:28.998Z,7.77
2023-01-11T05:16:29.138Z,7.75
2023-01-11T05:17:29.095Z,7.75
2023-01-11T05:18:28.990Z,7.75
2023-01-11T05:19:29.317Z,7.75
2023-01-11T05:20:29.016Z,7.77
2023-01-11T05:21:29.010Z,7.77
2023-01-11T05:22:29.138Z,7.77
2023-01-11T05:23:28.848Z,7.78
2023-01-11T05:24:56.373Z,7.78
2023-01-11T05:25:28.973Z,7.79
2023-01-11T05:26:28.961Z,7.78
2023-01-11T05:27:29.067Z,7.79
2023-01-11T05:28:29.267Z,7.78
2023-01-11T05:29:28.982Z,7.81
2023-01-11T05:30:28.883Z,7.81
2023-01-11T05:31:28.919Z,7.81
2023-01-11T05:32:28.887Z,7.84
2023-01-11T05:33:28.832Z,7.87
2023-01-11T05:34:28.803Z,7.90
2023-01-11T05:35:28.920Z,7.92
2023-01-11T05:36:28.736Z,7.90
2023-01-11T05:37:28.927Z,7.92
2023-01-11T05:38:28.730Z,7.92
2023-01-11T05:39:29.145Z,7.94
2023-01-11T05:40:28.959Z,7.94
2023-01-11T05:41:28.760Z,7.97
2023-01-11T05:42:28.855Z,7.99
2023-01-11T05:43:28.667Z,8.00
2023-01-11T05:44:28.990Z,8.03
2023-01-11T05:45:28.777Z,8.02
2023-01-11T05:46:28.500Z,8.07
2023-01-11T05:47:28.703Z,8.07
2023-01-11T05:48:28.629Z,8.08
2023-01-11T05:49:28.520Z,8.07
2023-01-11T05:50:28.618Z,8.07
2023-01-11T05:51:28.523Z,8.08
2023-01-11T05:52:28.431Z,8.08
2023-01-11T05:53:28.541Z,8.10
2023-01-11T05:54:28.434Z,8.10
2023-01-11T05:55:28.553Z,8.11
2023-01-11T05:56:28.369Z,8.10
2023-01-11T05:57:28.453Z,8.11
2023-01-11T05:58:28.394Z,8.10
2023-01-11T05:59:31.096Z,8.11
2023-01-11T06:00:28.380Z,8.12
2023-01-11T06:01:28.287Z,8.12
2023-01-11T06:02:28.482Z,8.12
2023-01-11T06:03:28.417Z,8.14
2023-01-11T06:04:28.286Z,8.14
2023-01-11T06:05:28.315Z,8.17
2023-01-11T06:06:28.394Z,8.15
2023-01-11T06:07:28.222Z,8.15
2023-01-11T06:08:28.318Z,8.15
2023-01-11T06:09:28.272Z,8.15
2023-01-11T06:10:28.352Z,8.15
2023-01-11T06:11:28.189Z,8.15
2023-01-11T06:12:28.163Z,8.15
2023-01-11T06:13:28.489Z,8.15
2023-01-11T06:14:28.195Z,8.17
2023-01-11T06:15:28.168Z,8.17
2023-01-11T06:16:28.286Z,8.18
2023-01-11T06:18:39.305Z,8.18
2023-01-11T06:19:39.278Z,8.18
2023-01-11T06:20:39.279Z,8.18
2023-01-11T06:21:39.266Z,8.20
2023-01-11T06:22:39.219Z,8.20
2023-01-11T06:23:39.204Z,8.20
2023-01-11T06:24:39.307Z,8.20
2023-01-11T06:25:39.240Z,8.20
2023-01-11T06:26:39.502Z,8.22
2023-01-11T06:27:39.127Z,8.22
2023-01-11T06:28:39.126Z,8.22
2023-01-11T06:29:39.146Z,8.25
2023-01-11T06:30:39.334Z,8.22
2023-01-11T06:31:39.048Z,8.22
2023-01-11T06:32:39.087Z,8.26
2023-01-11T06:33:39.069Z,8.26
2023-01-11T06:34:39.069Z,8.28
2023-01-11T06:35:38.975Z,8.26
2023-01-11T06:36:38.999Z,8.28
2023-01-11T06:37:39.109Z,8.29
2023-01-11T06:38:39.112Z,8.29
2023-01-11T06:39:39.192Z,8.29
2023-01-11T06:40:39.140Z,8.30
2023-01-11T06:41:39.104Z,8.32
2023-01-11T06:42:39.017Z,8.30
2023-01-11T06:43:38.960Z,8.30
2023-01-11T06:44:39.014Z,8.32
2023-01-11T06:45:38.919Z,8.35
2023-01-11T06:46:39.041Z,8.33
2023-01-11T06:47:39.042Z,8.35
2023-01-11T06:48:38.955Z,8.35
2023-01-11T06:49:38.874Z,8.36
2023-01-11T06:50:38.874Z,8.36
2023-01-11T06:51:38.826Z,8.36
2023-01-11T06:52:38.792Z,8.39
2023-01-11T06:53:38.843Z,8.39
2023-01-11T06:54:38.823Z,8.39
2023-01-11T06:55:38.810Z,8.39
2023-01-11T06:56:38.834Z,8.44
2023-01-11T06:57:38.924Z,8.44
2023-01-11T06:58:38.846Z,8.45
2023-01-11T06:59:39.767Z,8.47
2023-01-11T07:00:39.050Z,8.47
2023-01-11T07:01:38.691Z,8.47
2023-01-11T07:02:38.752Z,8.47
2023-01-11T07:03:38.759Z,8.45
2023-01-11T07:04:38.572Z,8.47
2023-01-11T07:05:38.655Z,8.48
2023-01-11T07:06:38.680Z,8.48
2023-01-11T07:07:38.586Z,8.51
2023-01-11T07:08:38.622Z,8.53
2023-01-11T07:09:39.419Z,8.51
2023-01-11T07:10:38.514Z,8.51
2023-01-11T07:11:38.610Z,8.51
2023-01-11T07:12:38.603Z,8.54
2023-01-11T07:13:38.441Z,8.54
2023-01-11T07:14:38.621Z,8.55
2023-01-11T07:15:38.569Z,8.54
2023-01-11T07:16:38.445Z,8.54
2023-01-11T07:17:38.564Z,8.55
2023-01-11T07:18:38.450Z,8.55
2023-01-11T07:19:38.380Z,8.57
2023-01-11T07:20:38.558Z,8.57
2023-01-11T07:21:38.406Z,8.57
2023-01-11T07:22:38.499Z,8.57
2023-01-11T07:23:38.407Z,8.58
2023-01-11T07:24:38.392Z,8.58
2023-01-11T07:25:38.403Z,8.60
2023-01-11T07:26:38.815Z,8.60
2023-01-11T07:27:38.339Z,8.62
2023-01-11T07:28:38.412Z,8.63
2023-01-11T07:29:38.350Z,8.68
2023-01-11T07:30:55.514Z,8.69
2023-01-11T07:31:39.626Z,8.71
2023-01-11T07:32:38.347Z,8.69
2023-01-11T07:33:38.160Z,8.72
2023-01-11T07:34:38.193Z,8.73
2023-01-11T07:35:38.446Z,8.75
2023-01-11T07:36:38.381Z,8.73
2023-01-11T07:37:38.195Z,8.76
2023-01-11T07:38:38.199Z,8.78
2023-01-11T07:39:43.923Z,8.79
2023-01-11T07:40:39.132Z,8.81
2023-01-11T07:41:39.246Z,8.83
2023-01-11T07:42:38.218Z,8.84
2023-01-11T07:43:38.225Z,8.84
2023-01-11T07:44:38.163Z,8.86
2023-01-11T07:45:45.287Z,8.86
2023-01-11T07:46:39.141Z,8.84
2023-01-11T07:47:38.047Z,8.87
2023-01-11T07:48:37.953Z,8.87
2023-01-11T07:49:38.074Z,8.88
2023-01-11T07:50:38.275Z,8.88
2023-01-11T07:51:37.997Z,8.88
2023-01-11T07:52:37.994Z,8.90
2023-01-11T07:53:37.887Z,8.90
2023-01-11T07:54:37.925Z,8.90
2023-01-11T07:55:38.023Z,8.91
2023-01-11T07:56:37.914Z,8.91
2023-01-11T07:57:37.943Z,8.90
2023-01-11T07:58:37.815Z,8.91
2023-01-11T07:59:37.923Z,8.91
2023-01-11T08:00:37.842Z,8.93
2023-01-11T08:01:37.841Z,8.94
2023-01-11T08:02:37.941Z,8.94
2023-01-11T08:03:38.027Z,8.94
2023-01-11T08:04:37.861Z,8.97
2023-01-11T08:05:38.084Z,8.97
2023-01-11T08:06:37.748Z,9.01
2023-01-11T08:07:37.755Z,9.04
2023-01-11T08:08:37.746Z,9.04
2023-01-11T08:09:37.697Z,9.02
2023-01-11T08:10:39.183Z,9.05
2023-01-11T08:11:37.801Z,9.05
2023-01-11T08:12:37.698Z,9.05
2023-01-11T08:13:37.620Z,9.06
2023-01-11T08:14:37.634Z,9.09
2023-01-11T08:15:37.638Z,9.09
2023-01-11T08:16:37.658Z,9.10
2023-01-11T08:17:37.745Z,9.10
2023-01-11T08:18:37.552Z,9.10
2023-01-11T08:19:37.572Z,9.10
2023-01-11T08:20:37.759Z,9.12
2023-01-11T08:21:37.580Z,9.12
2023-01-11T08:22:38.487Z,9.10
2023-01-11T08:23:37.695Z,9.12
2023-01-11T08:24:37.828Z,9.12
2023-01-11T08:25:37.713Z,9.15
2023-01-11T08:26:39.477Z,9.16
2023-01-11T08:27:40.604Z,9.18
2023-01-11T08:28:39.671Z,9.18
2023-01-11T08:29:37.640Z,9.20
2023-01-11T08:30:37.543Z,9.21
2023-01-11T08:31:38.152Z,9.23
2023-01-11T08:32:37.744Z,9.23
2023-01-11T08:33:38.079Z,9.24
2023-01-11T08:34:37.492Z,9.24
2023-01-11T08:35:37.693Z,9.24
2023-01-11T08:36:37.685Z,9.25
2023-01-11T08:37:37.575Z,9.27
2023-01-11T08:38:37.499Z,9.27
2023-01-11T08:39:38.000Z,9.28
2023-01-11T08:40:38.349Z,9.30
2023-01-11T08:41:37.535Z,9.28
2023-01-11T08:42:37.770Z,9.31
2023-01-11T08:43:37.445Z,9.32
2023-01-11T08:44:37.368Z,9.32
2023-01-11T08:45:38.576Z,9.35
2023-01-11T08:46:37.507Z,9.38
2023-01-11T08:47:37.455Z,9.38
2023-01-11T08:48:37.370Z,9.38
2023-01-11T08:49:38.427Z,9.40
2023-01-11T08:50:37.600Z,9.40
2023-01-11T08:51:37.607Z,9.43
2023-01-11T08:52:37.201Z,9.43
2023-01-11T08:53:37.427Z,9.43
2023-01-11T08:54:37.128Z,9.43
2023-01-11T08:55:37.221Z,9.45
2023-01-11T08:56:37.282Z,9.46
2023-01-11T08:57:37.234Z,9.49
2023-01-11T08:58:37.122Z,9.50
2023-01-11T08:59:37.534Z,9.52
2023-01-11T09:00:37.151Z,9.52
2023-01-11T09:01:37.078Z,9.52
2023-01-11T09:02:38.468Z,9.53
2023-01-11T09:03:37.388Z,9.57
2023-01-11T09:04:39.439Z,9.57
2023-01-11T09:05:37.072Z,9.61
2023-01-11T09:06:37.987Z,9.63
2023-01-11T09:07:38.330Z,9.67
2023-01-11T09:08:37.407Z,9.70
2023-01-11T09:09:37.880Z,9.68
2023-01-11T09:10:37.125Z,9.70
2023-01-11T09:11:37.112Z,9.71
2023-01-11T09:12:37.050Z,9.73
2023-01-11T09:13:37.133Z,9.71
2023-01-11T09:14:37.059Z,9.73
2023-01-11T09:15:36.949Z,9.75
2023-01-11T09:16:36.966Z,9.75
2023-01-11T09:17:38.935Z,9.75
2023-01-11T09:18:37.092Z,9.76
2023-01-11T09:19:36.863Z,9.79
2023-01-11T09:20:36.806Z,9.81
2023-01-11T09:21:36.777Z,9.82
2023-01-11T09:22:37.783Z,9.83
2023-01-11T09:23:36.777Z,9.85
2023-01-11T09:24:37.233Z,9.91
2023-01-11T09:25:36.932Z,9.93
2023-01-11T09:26:36.818Z,9.96
2023-01-11T09:27:36.937Z,9.99
2023-01-11T09:28:36.758Z,9.97
2023-01-11T09:29:37.545Z,9.99
2023-01-11T09:30:37.340Z,10.00
2023-01-11T09:31:36.836Z,10.01
2023-01-11T09:32:36.819Z,10.01
2023-01-11T09:33:36.663Z,10.01
2023-01-11T09:34:36.769Z,10.01
2023-01-11T09:35:36.672Z,10.04
2023-01-11T09:36:36.697Z,10.04
2023-01-11T09:37:36.685Z,10.07
2023-01-11T09:38:36.696Z,10.07
2023-01-11T09:39:36.833Z,10.09
2023-01-11T09:40:36.778Z,10.09
2023-01-11T09:41:36.540Z,10.07
2023-01-11T09:42:36.555Z,10.09
2023-01-11T09:43:36.634Z,10.10
2023-01-11T09:44:36.633Z,10.14
2023-01-11T09:45:36.745Z,10.15
2023-01-11T09:46:36.463Z,10.15
2023-01-11T09:47:36.545Z,10.17
2023-01-11T09:48:36.476Z,10.17
2023-01-11T09:49:36.482Z,10.17
2023-01-11T09:50:36.579Z,10.17
2023-01-11T09:51:36.503Z,10.18
2023-01-11T09:52:36.481Z,10.18
2023-01-11T09:53:36.500Z,10.18
2023-01-11T09:54:36.311Z,10.18
2023-01-11T09:55:39.201Z,10.18
2023-01-11T09:56:37.760Z,10.18
2023-01-11T09:57:36.461Z,10.15
2023-01-11T09:58:36.524Z,10.12
2023-01-11T09:59:36.448Z,10.12
2023-01-11T10:00:36.811Z,10.07
2023-01-11T10:01:36.563Z,10.04
2023-01-11T10:02:36.375Z,10.04
2023-01-11T10:03:36.458Z,10.01
2023-01-11T10:04:36.404Z,10.04
2023-01-11T10:05:36.307Z,10.04
2023-01-11T10:06:36.288Z,10.06
2023-01-11T10:07:36.296Z,10.07
2023-01-11T10:18:26.726Z,10.00
2023-01-11T10:18:30.650Z,9.97
2023-01-11T10:18:37.059Z,9.99
2023-01-11T10:18:43.313Z,10.01
2023-01-11T10:19:10.403Z,9.96
2023-01-11T10:19:40.614Z,9.96
2023-01-11T10:20:36.133Z,9.94
2023-01-11T10:21:36.300Z,9.93
2023-01-11T10:22:36.095Z,9.94
2023-01-11T10:23:35.983Z,9.91
2023-01-11T10:24:35.964Z,9.93
2023-01-11T10:25:35.901Z,9.93
2023-01-11T10:26:36.052Z,9.89
2023-01-11T10:27:35.905Z,9.89
2023-01-11T10:28:35.935Z,9.89
2023-01-11T10:29:36.449Z,9.89
2023-01-11T10:30:35.917Z,9.89
2023-01-11T10:31:36.209Z,9.91
2023-01-11T10:32:35.833Z,9.88
2023-01-11T10:33:35.766Z,9.88
2023-01-11T10:34:35.906Z,9.86
2023-01-11T10:35:35.771Z,9.88
2023-01-11T10:36:35.683Z,9.89
2023-01-11T10:37:35.702Z,9.89
2023-01-11T10:38:35.779Z,9.89
2023-01-11T10:39:35.888Z,9.89
2023-01-11T10:40:35.728Z,9.91
2023-01-11T10:41:35.692Z,9.91
2023-01-11T10:42:35.807Z,9.91
2023-01-11T10:43:35.625Z,9.93
2023-01-11T10:44:35.813Z,9.94
2023-01-11T10:45:35.807Z,9.94
2023-01-11T10:46:35.538Z,9.94
2023-01-11T10:47:35.755Z,9.96
2023-01-11T10:48:35.657Z,9.94
2023-01-11T10:49:36.282Z,9.94
2023-01-11T10:50:35.664Z,9.91
2023-01-11T10:51:35.578Z,9.93
2023-01-11T10:52:35.880Z,9.93
2023-01-11T10:53:35.617Z,9.93
2023-01-11T10:54:35.579Z,9.94
2023-01-11T10:55:36.591Z,9.94
2023-01-11T10:56:35.721Z,9.93
2023-01-11T10:57:36.637Z,9.91
2023-01-11T10:58:35.541Z,9.91
2023-01-11T10:59:35.569Z,9.89
2023-01-11T11:00:35.683Z,9.89
2023-01-11T11:01:35.771Z,9.86
2023-01-11T11:02:36.585Z,9.83
2023-01-11T11:03:35.490Z,9.81
2023-01-11T11:04:35.369Z,9.76
2023-01-11T11:05:35.398Z,9.73
2023-01-11T11:06:35.398Z,9.71
2023-01-11T11:07:35.807Z,9.70
2023-01-11T11:08:35.202Z,9.68
2023-01-11T11:09:35.293Z,9.68
2023-01-11T11:10:35.205Z,9.67
2023-01-11T11:11:35.215Z,9.67
2023-01-11T11:12:35.211Z,9.67
2023-01-11T11:13:35.125Z,9.66
2023-01-11T11:14:35.257Z,9.67
2023-01-11T11:15:35.253Z,9.67
2023-01-11T11:16:35.184Z,9.64
2023-01-11T11:17:35.358Z,9.63
2023-01-11T11:18:35.374Z,9.63
2023-01-11T11:19:35.281Z,9.61
2023-01-11T11:20:35.386Z,9.60
2023-01-11T11:21:35.418Z,9.60
2023-01-11T11:22:35.282Z,9.60
2023-01-11T11:23:35.105Z,9.63
2023-01-11T11:24:35.105Z,9.63
2023-01-11T11:25:35.009Z,9.63
2023-01-11T11:26:35.171Z,9.66
2023-01-11T11:27:34.910Z,9.66
2023-01-11T11:28:35.035Z,9.66
2023-01-11T11:29:35.560Z,9.67
2023-01-11T11:30:34.957Z,9.68
2023-01-11T11:31:35.179Z,9.68
2023-01-11T11:32:36.631Z,9.70
2023-01-11T11:33:34.853Z,9.71
2023-01-11T11:34:34.881Z,9.75
2023-01-11T11:35:35.179Z,9.75
2023-01-11T11:36:34.978Z,9.75
2023-01-11T11:37:34.881Z,9.75
2023-01-11T11:38:34.909Z,9.76
2023-01-11T11:39:34.930Z,9.76
2023-01-11T11:40:34.898Z,9.78
2023-01-11T11:41:34.913Z,9.79
2023-01-11T11:42:34.737Z,9.78
2023-01-11T11:43:34.724Z,9.78
2023-01-11T11:44:34.819Z,9.75
2023-01-11T11:45:34.771Z,9.71
2023-01-11T11:46:35.890Z,9.73
2023-01-11T11:47:34.748Z,9.75
2023-01-11T11:48:34.783Z,9.76
2023-01-11T11:49:34.753Z,9.78
2023-01-11T11:50:44.922Z,9.78
2023-01-11T11:51:35.677Z,9.78
2023-01-11T11:52:34.585Z,9.73
2023-01-11T11:53:34.715Z,9.75
2023-01-11T11:54:34.703Z,9.75
2023-01-11T11:55:34.680Z,9.75
2023-01-11T11:56:34.587Z,9.76
2023-01-11T11:57:34.628Z,9.78
2023-01-11T11:58:34.515Z,9.78
2023-01-11T11:59:34.728Z,9.76
2023-01-11T12:00:34.531Z,9.75
2023-01-11T12:01:34.449Z,9.71
2023-01-11T12:02:34.592Z,9.70
2023-01-11T12:03:34.562Z,9.68
2023-01-11T12:04:35.069Z,9.67
2023-01-11T12:05:34.368Z,9.66
2023-01-11T12:06:34.454Z,9.64
2023-01-11T12:07:38.058Z,9.64
2023-01-11T12:08:35.443Z,9.63
2023-01-11T12:09:34.665Z,9.60
2023-01-11T12:10:34.398Z,9.58
2023-01-11T12:11:34.388Z,9.58
2023-01-11T12:12:34.408Z,9.58
2023-01-11T12:13:34.457Z,9.56
2023-01-11T12:14:34.419Z,9.56
2023-01-11T12:15:34.372Z,9.53
2023-01-11T12:16:34.360Z,9.53
2023-01-11T12:17:34.512Z,9.52
2023-01-11T12:18:34.465Z,9.53
2023-01-11T12:19:34.429Z,9.53
2023-01-11T12:20:34.378Z,9.53
2023-01-11T12:21:34.261Z,9.56
2023-01-11T12:22:34.177Z,9.53
2023-01-11T12:23:34.209Z,9.53
2023-01-11T12:24:34.270Z,9.52
2023-01-11T12:25:34.301Z,9.50
2023-01-11T12:26:34.097Z,9.52
2023-01-11T12:27:34.214Z,9.52
2023-01-11T12:28:35.980Z,9.50
2023-01-11T12:29:34.418Z,9.49
2023-01-11T12:30:34.412Z,9.49
2023-01-11T12:31:34.134Z,9.49
2023-01-11T12:32:34.460Z,9.48
2023-01-11T12:33:34.140Z,9.46
2023-01-11T12:34:34.055Z,9.46
2023-01-11T12:35:33.972Z,9.46
2023-01-11T12:36:34.391Z,9.46
2023-01-11T12:37:34.077Z,9.45
2023-01-11T12:38:34.092Z,9.43
2023-01-11T12:39:34.003Z,9.43
2023-01-11T12:40:33.986Z,9.45
2023-01-11T12:41:34.028Z,9.45
2023-01-11T12:42:33.993Z,9.46
2023-01-11T12:43:34.024Z,9.46
2023-01-11T12:44:33.911Z,9.46
2023-01-11T12:45:33.842Z,9.49
2023-01-11T12:46:33.842Z,9.50
2023-01-11T12:47:34.133Z,9.49
2023-01-11T12:48:33.841Z,9.50
2023-01-11T12:49:33.874Z,9.50
2023-01-11T12:50:33.845Z,9.52
2023-01-11T12:51:33.880Z,9.52
2023-01-11T12:52:33.782Z,9.50
2023-01-11T12:53:33.962Z,9.50
2023-01-11T12:54:33.892Z,9.50
2023-01-11T12:55:33.797Z,9.50
2023-01-11T12:56:34.715Z,9.50
2023-01-11T12:57:33.703Z,9.50
2023-01-11T12:58:33.804Z,9.50
2023-01-11T12:59:33.648Z,9.49
2023-01-11T13:00:33.623Z,9.49
2023-01-11T13:01:33.789Z,9.49
2023-01-11T13:02:34.112Z,9.50
2023-01-11T13:03:33.648Z,9.52
2023-01-11T13:04:33.570Z,9.52
2023-01-11T13:05:33.756Z,9.52
2023-01-11T13:06:33.652Z,9.52
2023-01-11T13:07:33.616Z,9.52
2023-01-11T13:08:33.809Z,9.53
2023-01-11T13:09:34.006Z,9.52
2023-01-11T13:10:33.610Z,9.50
2023-01-11T13:11:33.586Z,9.50
2023-01-11T13:12:33.508Z,9.50
2023-01-11T13:13:33.504Z,9.52
2023-01-11T13:14:33.515Z,9.52
2023-01-11T13:15:34.591Z,9.50
2023-01-11T13:16:33.727Z,9.52
2023-01-11T13:17:33.462Z,9.52
2023-01-11T13:18:33.343Z,9.50
2023-01-11T13:19:33.554Z,9.50
2023-01-11T13:20:40.379Z,9.49
2023-01-11T13:21:34.473Z,9.52
2023-01-11T13:22:33.280Z,9.52
2023-01-11T13:23:33.281Z,9.52
2023-01-11T13:24:33.405Z,9.53